Time;durP1;ratioP1;P1;durP2;ratioP2;P2;SDS_P1;SDS_P2;PMS_P1;PMS_P2;Temp;Humidity;BMP_temperature;BMP_pressure;BME280_temperature;BME280_humidity;BME280_pressure;Samples;Min_cycle;Max_cycle;Signal;HPM_P1;HPM_P2
2021/03/01 00:01:08;;;;;;;6.40;5.58;;;;;;;7.93;51.78;102516.08;1685249;84;21315;-49
2021/03/01 00:03:38;;;;;;;7.75;5.42;;;;;;;7.93;51.88;102510.89;1683949;84;21212;-48
2021/03/01 00:06:07;;;;;;;5.75;4.78;;;;;;;7.93;52.08;102510.89;1656635;84;21617;-48
2021/03/01 00:08:35;;;;;;;5.92;5.25;;;;;;;7.94;52.32;102511.36;1668551;85;21724;-48
2021/03/01 00:11:05;;;;;;;6.45;4.85;;;;;;;7.97;52.38;102508.83;1668410;85;21177;-48
2021/03/01 00:13:35;;;;;;;6.78;5.22;;;;;;;8.00;52.36;102501.50;1667055;85;21201;-48
2021/03/01 00:16:05;;;;;;;6.67;5.05;;;;;;;8.02;52.33;102505.88;1665613;85;21258;-48
2021/03/01 00:18:34;;;;;;;7.92;5.65;;;;;;;8.04;52.42;102502.88;1665753;85;21240;-48
2021/03/01 00:21:02;;;;;;;5.97;5.37;;;;;;;8.03;52.40;102492.08;1665342;85;21319;-48
2021/03/01 00:23:31;;;;;;;7.85;5.75;;;;;;;8.03;52.50;102488.19;1665716;85;21187;-48
2021/03/01 00:26:00;;;;;;;6.12;5.17;;;;;;;8.03;52.59;102490.78;1665804;85;21245;-48
2021/03/01 00:28:28;;;;;;;5.72;4.65;;;;;;;8.03;52.75;102486.90;1710451;82;21541;-48
2021/03/01 00:30:57;;;;;;;4.83;4.03;;;;;;;8.02;53.14;102479.95;1732302;82;21243;-48
2021/03/01 00:33:25;;;;;;;5.65;4.17;;;;;;;8.06;53.45;102473.97;1732151;82;21330;-48
2021/03/01 00:35:55;;;;;;;6.40;4.40;;;;;;;8.07;53.65;102461.88;1739238;82;21584;-48
2021/03/01 00:38:24;;;;;;;6.03;3.77;;;;;;;8.09;53.82;102464.95;1727074;82;21588;-48
2021/03/01 00:40:52;;;;;;;4.80;4.00;;;;;;;8.10;53.97;102458.91;1728969;82;21165;-48
2021/03/01 00:43:21;;;;;;;5.50;4.08;;;;;;;8.10;54.11;102452.42;1729923;82;21161;-48
2021/03/01 00:45:49;;;;;;;5.72;3.45;;;;;;;8.07;54.30;102448.50;1729846;82;21144;-48
2021/03/01 00:48:18;;;;;;;3.90;2.90;;;;;;;8.07;54.52;102450.22;1729792;82;21161;-49
2021/03/01 00:50:46;;;;;;;4.12;3.12;;;;;;;8.05;54.81;102454.09;1729752;82;21282;-48
2021/03/01 00:53:26;;;;;;;3.50;3.08;;;;;;;8.08;55.00;102454.12;1726395;82;21266;-48
2021/03/01 00:55:55;;;;;;;4.62;3.05;;;;;;;8.12;55.16;102455.91;1702147;83;21198;-49
2021/03/01 00:58:23;;;;;;;4.55;2.92;;;;;;;8.12;55.35;102446.83;1726383;83;21624;-48
2021/03/01 01:00:52;;;;;;;4.03;2.85;;;;;;;8.09;55.46;102450.70;1726398;82;21616;-48
2021/03/01 01:03:22;;;;;;;3.22;2.40;;;;;;;8.02;55.89;102446.25;1726418;83;21204;-48
2021/03/01 01:05:59;;;;;;;3.67;2.98;;;;;;;8.01;56.24;102447.12;1718282;82;21238;-48
2021/03/01 01:08:28;;;;;;;3.42;2.50;;;;;;;8.01;56.61;102452.30;1726726;83;21313;-48
2021/03/01 01:10:56;;;;;;;3.92;2.83;;;;;;;8.02;56.81;102446.25;1726745;83;21141;-48
2021/03/01 01:13:25;;;;;;;5.25;3.17;;;;;;;8.07;56.83;102442.02;1726806;83;21196;-48
2021/03/01 01:15:53;;;;;;;3.35;2.83;;;;;;;8.10;56.84;102447.23;1726725;83;21161;-48
2021/03/01 01:18:22;;;;;;;4.28;3.27;;;;;;;8.11;56.86;102443.81;1726687;83;21192;-48
2021/03/01 01:20:51;;;;;;;3.70;2.75;;;;;;;8.12;56.90;102447.25;1726720;83;21170;-48
2021/03/01 01:23:19;;;;;;;4.00;2.92;;;;;;;8.10;57.14;102451.13;1726838;83;21328;-48
2021/03/01 01:25:49;;;;;;;3.30;3.00;;;;;;;8.10;57.44;102447.23;1726830;83;21206;-48
2021/03/01 01:28:17;;;;;;;3.10;2.80;;;;;;;8.12;57.53;102447.25;1726837;83;21597;-48
2021/03/01 01:30:45;;;;;;;3.80;3.40;;;;;;;8.15;57.62;102440.41;1726684;83;21176;-48
2021/03/01 01:33:14;;;;;;;4.45;3.77;;;;;;;8.17;57.55;102441.31;1726700;83;21468;-48
2021/03/01 01:35:43;;;;;;;6.15;4.30;;;;;;;8.19;57.48;102439.61;1726927;83;21158;-48
2021/03/01 01:38:12;;;;;;;4.70;3.77;;;;;;;8.18;57.49;102433.95;1726892;83;21180;-48
2021/03/01 01:40:41;;;;;;;4.53;3.92;;;;;;;8.18;57.53;102436.55;1726778;83;21363;-48
2021/03/01 01:43:10;;;;;;;5.03;4.53;;;;;;;8.18;57.59;102424.88;1726996;83;21194;-48
2021/03/01 01:45:39;;;;;;;4.83;4.17;;;;;;;8.20;57.67;102424.93;1726665;83;21173;-48
2021/03/01 01:48:09;;;;;;;5.22;4.47;;;;;;;8.20;57.71;102425.78;1727084;83;21699;-49
2021/03/01 01:50:38;;;;;;;4.83;4.40;;;;;;;8.21;57.72;102427.53;1727147;82;21687;-49
2021/03/01 01:53:06;;;;;;;6.03;4.67;;;;;;;8.21;57.72;102424.06;1733854;82;21584;-49
2021/03/01 01:55:36;;;;;;;5.42;4.67;;;;;;;8.19;57.74;102418.86;1734796;82;21161;-48
2021/03/01 01:58:06;;;;;;;5.20;4.33;;;;;;;8.09;58.02;102414.40;1735555;82;21192;-48
2021/03/01 02:03:36;;;;;;;5.25;4.75;;;;;;;8.20;58.00;102411.97;1735384;82;21129;-48
2021/03/01 02:06:16;;;;;;;4.90;4.35;;;;;;;8.21;58.06;102422.35;1738589;82;21149;-48
2021/03/01 02:09:25;;;;;;;5.53;4.50;;;;;;;8.22;58.00;102430.56;1738556;82;21132;-48
2021/03/01 02:12:10;;;;;;;5.50;4.87;;;;;;;8.22;58.02;102433.16;1740412;82;21298;-49
2021/03/01 02:14:47;;;;;;;6.15;4.53;;;;;;;8.16;58.07;102439.55;1740336;81;21140;-48
2021/03/01 02:17:17;;;;;;;5.05;4.53;;;;;;;8.12;58.27;102436.87;1735188;82;21153;-49
2021/03/01 02:19:45;;;;;;;4.65;4.15;;;;;;;8.08;58.39;102439.86;1738686;82;21294;-48
2021/03/01 02:22:13;;;;;;;6.92;4.15;;;;;;;8.08;58.52;102433.37;1739054;82;21294;-48
2021/03/01 02:24:48;;;;;;;5.78;4.90;;;;;;;8.11;58.48;102437.75;1738904;82;21299;-48
2021/03/01 02:27:24;;;;;;;6.03;5.05;;;;;;;8.10;58.39;102436.86;1738193;82;21121;-48
2021/03/01 02:29:56;;;;;;;5.15;4.58;;;;;;;8.08;58.49;102441.16;1737436;82;21278;-48
2021/03/01 02:32:26;;;;;;;;;;;;;;;8.06;58.64;102436.38;1737017;82;21139;-48
2021/03/01 02:34:54;;;;;;;5.17;4.47;;;;;;;8.06;58.82;102436.38;1737225;82;20411;-48
2021/03/01 02:37:24;;;;;;;5.28;4.25;;;;;;;8.05;58.93;102435.95;1729520;82;21597;-48
2021/03/01 02:39:52;;;;;;;5.35;4.20;;;;;;;8.08;58.95;102432.08;1738896;82;21294;-48
2021/03/01 02:42:25;;;;;;;5.85;5.03;;;;;;;8.16;58.70;102432.22;1741311;82;21133;-48
2021/03/01 02:44:55;;;;;;;5.10;4.60;;;;;;;8.17;58.63;102437.42;1741100;82;21318;-48
2021/03/01 02:47:25;;;;;;;4.77;4.23;;;;;;;8.18;58.62;102433.95;1738668;82;21358;-49
2021/03/01 02:49:56;;;;;;;5.60;4.37;;;;;;;8.18;58.62;102440.44;1736707;82;21220;-48
2021/03/01 02:52:24;;;;;;;6.33;4.40;;;;;;;8.16;58.74;102439.55;1713802;82;21181;-48
2021/03/01 02:54:53;;;;;;;4.17;3.77;;;;;;;8.16;58.83;102446.03;1738380;82;21229;-48
2021/03/01 02:57:22;;;;;;;4.28;3.87;;;;;;;8.17;58.94;102438.72;1739224;82;21173;-48
2021/03/01 02:59:53;;;;;;;4.97;4.25;;;;;;;8.11;59.10;102438.62;1739141;82;21197;-48
2021/03/01 03:02:21;;;;;;;6.03;4.72;;;;;;;8.10;59.14;102443.34;1735302;82;21217;-48
2021/03/01 03:04:49;;;;;;;3.95;3.55;;;;;;;8.10;59.17;102436.86;1725422;82;21225;-48
2021/03/01 03:07:18;;;;;;;7.00;4.30;;;;;;;8.09;59.26;102439.03;1736009;81;21597;-48
2021/03/01 03:09:47;;;;;;;4.92;4.12;;;;;;;8.11;59.33;102439.04;1745722;81;21219;-48
2021/03/01 03:12:15;;;;;;;5.10;3.90;;;;;;;8.15;59.35;102440.41;1746997;81;21165;-48
2021/03/01 03:14:44;;;;;;;5.35;4.05;;;;;;;8.16;59.29;102439.55;1746329;81;21734;-49
2021/03/01 03:17:12;;;;;;;4.55;3.70;;;;;;;8.18;59.28;102444.33;1742654;81;21354;-49
2021/03/01 03:19:42;;;;;;;4.37;3.62;;;;;;;8.18;59.19;102439.14;1737009;81;21319;-48
2021/03/01 03:22:11;;;;;;;4.03;3.62;;;;;;;8.20;59.28;102443.92;1743612;81;21660;-48
2021/03/01 03:24:39;;;;;;;4.40;3.30;;;;;;;8.22;59.27;102434.45;1744797;81;21334;-48
2021/03/01 03:27:08;;;;;;;4.50;3.58;;;;;;;8.22;59.28;102435.74;1741313;81;21771;-48
2021/03/01 03:29:37;;;;;;;4.70;3.52;;;;;;;8.23;59.18;102436.63;1741271;81;21801;-49
2021/03/01 03:32:05;;;;;;;5.17;4.25;;;;;;;8.22;59.13;102434.45;1742555;81;21153;-48
2021/03/01 03:34:33;;;;;;;6.90;3.67;;;;;;;8.21;59.16;102431.42;1745754;81;21165;-48
2021/03/01 03:37:09;;;;;;;3.70;3.00;;;;;;;8.21;59.26;102432.72;1754517;81;21141;-48
2021/03/01 03:39:41;;;;;;;3.42;2.77;;;;;;;8.21;59.29;102427.53;1741114;81;21149;-48
2021/03/01 03:42:12;;;;;;;3.40;3.08;;;;;;;8.20;59.31;102430.96;1740947;81;21152;-48
2021/03/01 03:44:40;;;;;;;3.22;2.92;;;;;;;8.19;59.32;102426.64;1731383;81;21189;-48
2021/03/01 03:47:09;;;;;;;3.35;2.85;;;;;;;8.18;59.27;102429.22;1727721;82;21153;-48
2021/03/01 03:49:37;;;;;;;2.75;2.35;;;;;;;8.18;59.27;102425.33;1726620;82;21122;-50
2021/03/01 03:52:06;;;;;;;3.08;2.60;;;;;;;8.18;59.29;102433.11;1726237;82;21117;-48
2021/03/01 03:54:35;;;;;;;3.10;2.80;;;;;;;8.19;59.33;102429.23;1725242;82;21201;-49
2021/03/01 03:57:05;;;;;;;3.12;2.62;;;;;;;8.21;59.29;102432.72;1725240;82;21149;-49
2021/03/01 03:59:34;;;;;;;3.22;2.55;;;;;;;8.22;59.15;102429.27;1734232;82;21125;-48
2021/03/01 04:02:03;;;;;;;3.35;2.47;;;;;;;8.24;58.93;102432.75;1727662;82;21145;-48
2021/03/01 04:04:32;;;;;;;2.90;2.67;;;;;;;8.22;58.87;102435.74;1727664;82;21145;-48
2021/03/01 04:07:01;;;;;;;2.40;2.20;;;;;;;8.19;58.86;102439.61;1716943;82;21292;-48
2021/03/01 04:09:29;;;;;;;2.62;2.42;;;;;;;8.17;59.07;102440.02;1727541;82;21173;-49
2021/03/01 04:11:57;;;;;;;1.92;1.82;;;;;;;8.18;59.05;102442.19;1726294;82;21574;-49
2021/03/01 04:14:26;;;;;;;2.35;2.15;;;;;;;8.19;59.09;102443.50;1724865;82;21290;-49
2021/03/01 04:16:57;;;;;;;2.40;2.08;;;;;;;8.09;59.31;102450.70;1726723;82;21130;-51
2021/03/01 04:19:26;;;;;;;2.25;2.00;;;;;;;8.07;59.39;102449.80;1728469;82;21181;-48
2021/03/01 04:21:56;;;;;;;2.60;2.40;;;;;;;8.05;59.43;102447.61;1727457;82;21133;-48
2021/03/01 04:24:25;;;;;;;2.50;2.30;;;;;;;8.02;59.53;102450.14;1727478;82;21177;-48
2021/03/01 04:26:53;;;;;;;4.08;3.17;;;;;;;8.08;59.52;102451.94;1725712;82;21319;-49
2021/03/01 04:29:21;;;;;;;1.87;1.75;;;;;;;8.10;59.51;102451.55;1724711;82;21287;-48
2021/03/01 04:31:50;;;;;;;2.40;2.20;;;;;;;8.11;59.50;102452.01;1724076;82;21708;-48
2021/03/01 04:34:20;;;;;;;2.42;2.10;;;;;;;8.12;59.45;102453.31;1724235;82;21169;-48
2021/03/01 04:36:48;;;;;;;2.60;2.40;;;;;;;8.16;59.13;102455.11;1702240;82;21735;-48
2021/03/01 04:39:17;;;;;;;2.40;2.20;;;;;;;8.10;59.16;102464.09;1704881;82;21315;-49
2021/03/01 04:41:46;;;;;;;2.65;2.22;;;;;;;8.06;59.37;102466.19;1725611;82;21298;-48
2021/03/01 04:44:16;;;;;;;2.25;1.90;;;;;;;8.09;59.54;102471.44;1726517;82;21169;-49
2021/03/01 04:46:47;;;;;;;2.60;2.40;;;;;;;8.15;59.54;102468.05;1722795;82;21165;-50
2021/03/01 04:49:16;;;;;;;2.70;2.50;;;;;;;8.17;59.44;102474.14;1722128;82;21129;-48
2021/03/01 04:51:44;;;;;;;2.90;2.70;;;;;;;8.15;59.24;102474.54;1721819;82;21160;-49
2021/03/01 04:54:12;;;;;;;2.52;2.33;;;;;;;8.14;59.33;102474.95;1727831;81;21185;-48
2021/03/01 04:56:44;;;;;;;3.30;2.50;;;;;;;8.12;59.34;102477.95;1724897;82;21157;-49
2021/03/01 04:59:18;;;;;;;2.80;2.60;;;;;;;8.11;59.19;102476.22;1706197;83;22479;-48
2021/03/01 05:01:48;;;;;;;3.20;2.90;;;;;;;8.11;59.29;102477.52;1693639;84;21181;-48
2021/03/01 05:04:17;;;;;;;3.10;2.77;;;;;;;8.10;59.25;102478.34;1706392;83;21177;-48
2021/03/01 05:06:45;;;;;;;4.58;3.10;;;;;;;8.08;59.27;102485.23;1690028;84;21165;-48
2021/03/01 05:09:14;;;;;;;4.37;3.37;;;;;;;8.08;59.35;102486.94;1728577;82;21604;-49
2021/03/01 05:11:42;;;;;;;4.47;3.60;;;;;;;8.05;59.44;102483.91;1720403;82;21165;-48
2021/03/01 05:14:10;;;;;;;4.35;3.95;;;;;;;7.99;59.47;102485.11;1720665;82;21156;-48
2021/03/01 05:16:39;;;;;;;4.35;3.95;;;;;;;7.90;59.63;102492.72;1718981;82;21300;-48
2021/03/01 05:19:08;;;;;;;3.90;3.52;;;;;;;7.81;59.80;102492.55;1719131;82;21589;-49
2021/03/01 05:21:37;;;;;;;5.25;4.60;;;;;;;7.74;60.12;102485.53;1720132;82;21336;-48
2021/03/01 05:24:07;;;;;;;5.10;4.30;;;;;;;7.64;60.46;102494.00;1721513;82;21161;-48
2021/03/01 05:26:35;;;;;;;5.90;4.25;;;;;;;7.68;60.65;102493.20;1722378;82;21185;-48
2021/03/01 05:29:04;;;;;;;4.78;4.20;;;;;;;7.67;60.73;102496.62;1722049;82;21180;-48
2021/03/01 05:31:33;;;;;;;5.78;4.55;;;;;;;7.70;60.57;102501.88;1721766;82;21180;-49
2021/03/01 05:34:01;;;;;;;4.87;4.15;;;;;;;7.59;60.79;102507.27;1722293;82;21366;-48
2021/03/01 05:36:30;;;;;;;4.87;4.15;;;;;;;7.53;60.92;102517.53;1724215;82;21157;-49
2021/03/01 05:38:58;;;;;;;3.90;3.50;;;;;;;7.48;61.24;102520.44;1720764;82;21125;-49
2021/03/01 05:41:27;;;;;;;4.40;3.55;;;;;;;7.48;61.37;102517.84;1725244;82;21212;-48
2021/03/01 05:43:55;;;;;;;3.40;3.10;;;;;;;7.45;61.39;102520.81;1724427;82;21134;-49
2021/03/01 05:46:24;;;;;;;3.87;3.45;;;;;;;7.42;61.63;102533.27;1724356;82;21185;-48
2021/03/01 05:48:53;;;;;;;3.87;3.35;;;;;;;7.40;61.67;102538.84;1719466;82;21209;-48
2021/03/01 05:51:26;;;;;;;3.42;3.12;;;;;;;7.40;61.71;102538.84;1738592;82;21176;-48
2021/03/01 05:53:59;;;;;;;4.78;3.62;;;;;;;7.43;61.71;102542.81;1739074;82;21160;-48
2021/03/01 05:56:27;;;;;;;3.90;3.60;;;;;;;7.44;61.73;102549.72;1736689;82;21644;-48
2021/03/01 05:58:57;;;;;;;4.22;3.83;;;;;;;7.48;61.78;102552.81;1736896;82;21118;-49
2021/03/01 06:01:26;;;;;;;4.12;3.72;;;;;;;7.46;61.67;102562.27;1736493;82;21252;-48
2021/03/01 06:03:54;;;;;;;3.98;3.58;;;;;;;7.39;61.76;102559.13;1735262;82;21157;-48
2021/03/01 06:06:23;;;;;;;3.98;3.67;;;;;;;7.37;62.04;102562.11;1738989;81;21153;-49
2021/03/01 06:08:51;;;;;;;4.80;4.30;;;;;;;7.38;62.23;102557.37;1742667;81;21236;-48
2021/03/01 06:11:20;;;;;;;4.83;4.35;;;;;;;7.41;62.29;102558.73;1741589;81;21196;-48
2021/03/01 06:13:49;;;;;;;4.12;3.72;;;;;;;7.47;62.28;102564.45;1741097;81;21782;-48
2021/03/01 06:16:17;;;;;;;5.47;4.20;;;;;;;7.49;62.19;102571.41;1742103;81;21253;-48
2021/03/01 06:18:46;;;;;;;4.53;4.10;;;;;;;7.52;62.08;102571.49;1744301;81;21145;-49
2021/03/01 06:21:16;;;;;;;3.95;3.65;;;;;;;7.56;62.10;102573.70;1744281;81;21156;-48
2021/03/01 06:23:45;;;;;;;5.53;4.03;;;;;;;7.57;62.03;102586.68;1744461;81;21639;-49
2021/03/01 06:26:35;;;;;;;4.30;3.90;;;;;;;7.56;62.03;102583.66;1744676;81;21125;-48
2021/03/01 06:29:07;;;;;;;5.10;4.22;;;;;;;7.58;62.12;102587.15;1744327;81;21165;-48
2021/03/01 06:31:41;;;;;;;4.70;4.30;;;;;;;7.58;62.03;102581.97;1744268;81;21177;-48
2021/03/01 06:34:24;;;;;;;4.60;4.15;;;;;;;7.62;62.07;102588.95;1744330;81;21129;-48
2021/03/01 06:37:09;;;;;;;5.10;4.60;;;;;;;7.63;61.83;102588.09;1747623;81;21216;-49
2021/03/01 06:39:47;;;;;;;4.55;4.12;;;;;;;7.60;62.08;102584.58;1741248;81;21317;-48
2021/03/01 06:42:22;;;;;;;4.62;3.98;;;;;;;7.60;62.32;102585.46;1741650;81;21817;-49
2021/03/01 06:45:05;;;;;;;4.78;4.17;;;;;;;7.58;62.33;102593.63;1741287;81;21149;-49
2021/03/01 06:47:53;;;;;;;5.42;4.83;;;;;;;7.54;62.37;102589.23;1741457;81;21176;-49
2021/03/01 06:50:36;;;;;;;4.87;4.47;;;;;;;7.59;62.33;102588.88;1812712;79;24045;-48
2021/03/01 06:53:14;;;;;;;4.30;3.90;;;;;;;7.53;62.37;102600.42;1766707;80;21132;-49
2021/03/01 06:56:08;;;;;;;4.83;4.42;;;;;;;7.47;62.56;102596.83;1778042;80;21690;-50
2021/03/01 06:58:38;;;;;;;4.95;4.55;;;;;;;7.46;62.65;102599.83;1773350;80;21164;-49
2021/03/01 07:01:16;;;;;;;5.28;4.42;;;;;;;7.47;62.69;102604.59;1766379;80;21159;-48
2021/03/01 07:03:47;;;;;;;5.03;4.53;;;;;;;7.43;62.70;102608.85;1766598;80;21164;-48
2021/03/01 07:06:15;;;;;;;5.35;4.85;;;;;;;7.39;62.88;102614.40;1776079;80;21161;-49
2021/03/01 07:08:49;;;;;;;5.90;5.40;;;;;;;7.38;63.12;102617.81;1775380;80;21157;-49
2021/03/01 07:11:35;;;;;;;4.85;4.30;;;;;;;7.42;63.03;102625.22;1780690;80;21156;-49
2021/03/01 07:14:10;;;;;;;5.00;4.50;;;;;;;7.55;62.68;102625.05;1762125;81;21641;-49
2021/03/01 07:16:49;;;;;;;4.47;4.08;;;;;;;7.61;62.41;102623.88;1780205;80;21137;-49
2021/03/01 07:19:21;;;;;;;3.72;3.42;;;;;;;7.61;62.00;102625.17;1780281;80;21140;-49
2021/03/01 07:21:51;;;;;;;3.52;3.22;;;;;;;7.61;61.38;102626.05;1780407;80;21627;-49
2021/03/01 07:24:22;;;;;;;4.47;4.08;;;;;;;7.62;61.17;102616.16;1766718;80;21271;-49
2021/03/01 07:26:51;;;;;;;4.05;3.58;;;;;;;7.64;61.02;102622.66;1780289;80;21160;-49
2021/03/01 07:29:21;;;;;;;4.37;3.98;;;;;;;7.65;60.76;102633.04;1779440;80;21171;-48
2021/03/01 07:31:56;;;;;;;3.55;3.25;;;;;;;7.67;60.76;102639.13;1763638;80;21181;-49
2021/03/01 07:34:24;;;;;;;3.75;3.45;;;;;;;7.71;60.89;102633.57;1777374;80;21187;-49
2021/03/01 07:36:55;;;;;;;4.40;4.00;;;;;;;7.73;60.69;102631.47;1775932;80;21345;-50
2021/03/01 07:39:23;;;;;;;5.83;3.75;;;;;;;7.69;61.04;102645.21;1775554;80;21151;-49
2021/03/01 07:41:52;;;;;;;3.60;3.30;;;;;;;7.75;61.00;102636.70;1781256;80;21176;-49
2021/03/01 07:44:28;;;;;;;3.42;3.12;;;;;;;7.85;60.81;102638.19;1780388;80;21144;-48
2021/03/01 07:46:57;;;;;;;3.72;3.35;;;;;;;7.88;60.80;102642.56;1779831;80;21159;-49
2021/03/01 07:49:48;;;;;;;3.87;3.40;;;;;;;7.91;60.62;102642.19;1786683;78;21152;-49
2021/03/01 07:52:31;;;;;;;4.25;3.85;;;;;;;7.95;60.62;102646.61;1772315;80;21152;-49
2021/03/01 07:55:11;;;;;;;4.03;3.62;;;;;;;7.99;60.64;102651.02;1772492;80;21156;-49
2021/03/01 07:57:40;;;;;;;4.03;3.72;;;;;;;8.01;60.43;102652.33;1772633;80;21207;-49
2021/03/01 08:00:29;;;;;;;4.05;3.72;;;;;;;8.01;60.02;102662.70;1743242;80;21157;-49
2021/03/01 08:02:58;;;;;;;4.22;3.83;;;;;;;7.99;60.08;102657.49;1771604;80;21595;-50
2021/03/01 08:05:32;;;;;;;3.77;3.47;;;;;;;7.94;59.99;102659.52;1769724;80;21600;-50
2021/03/01 08:08:00;;;;;;;4.40;3.80;;;;;;;7.91;60.15;102662.08;1767880;80;21129;-50
2021/03/01 08:10:37;;;;;;;3.90;3.60;;;;;;;7.93;60.04;102672.89;1769112;80;21295;-49
2021/03/01 08:13:07;;;;;;;4.08;3.20;;;;;;;7.94;60.04;102673.36;1768915;80;21183;-50
2021/03/01 08:15:40;;;;;;;3.47;3.17;;;;;;;7.96;60.32;102669.08;1768688;80;21121;-50
2021/03/01 08:18:10;;;;;;;4.10;3.80;;;;;;;8.02;60.35;102671.79;1768989;80;21191;-47
2021/03/01 08:20:45;;;;;;;4.20;3.80;;;;;;;8.04;60.38;102679.17;1768508;80;21121;-48
2021/03/01 08:23:14;;;;;;;4.45;4.05;;;;;;;8.10;60.23;102680.58;1706335;83;21641;-48
2021/03/01 08:25:49;;;;;;;4.70;4.20;;;;;;;8.12;60.37;102676.71;1702677;83;21186;-47
2021/03/01 08:28:27;;;;;;;5.30;4.80;;;;;;;8.16;60.18;102677.25;1708567;83;21316;-48
2021/03/01 08:30:56;;;;;;;4.35;3.98;;;;;;;8.21;60.37;102688.16;1708774;83;21217;-48
2021/03/01 08:33:26;;;;;;;5.42;4.85;;;;;;;8.24;60.43;102688.19;1708743;83;21236;-48
2021/03/01 08:36:18;;;;;;;5.15;4.65;;;;;;;8.30;60.61;102689.20;1704662;83;21182;-48
2021/03/01 08:38:49;;;;;;;4.30;3.90;;;;;;;8.36;60.34;102693.20;1702635;83;21177;-48
2021/03/01 08:41:35;;;;;;;4.47;4.08;;;;;;;8.37;60.11;102702.70;1712297;83;21649;-51
2021/03/01 08:44:21;;;;;;;4.65;4.25;;;;;;;8.43;59.75;102705.45;1771115;79;23076;-51
2021/03/01 08:46:50;;;;;;;4.60;4.20;;;;;;;8.37;59.56;102706.60;1665313;84;21763;-50
2021/03/01 08:49:25;;;;;;;4.40;4.00;;;;;;;8.31;59.76;102714.27;1689104;84;21595;-50
2021/03/01 08:52:00;;;;;;;3.70;3.40;;;;;;;8.39;60.02;102714.02;1771270;79;23084;-48
2021/03/01 08:54:30;;;;;;;4.55;4.15;;;;;;;8.37;59.94;102720.86;1729864;82;21604;-48
2021/03/01 08:57:07;;;;;;;15.35;13.15;;;;;;;8.43;59.64;102721.02;1737885;81;21159;-49
2021/03/01 08:59:35;;;;;;;8.15;7.35;;;;;;;8.42;59.50;102714.05;1737922;82;21176;-49
2021/03/01 09:02:04;;;;;;;16.97;12.15;;;;;;;8.40;59.53;102716.63;1738682;81;21298;-49
2021/03/01 09:04:32;;;;;;;45.80;32.28;;;;;;;8.42;59.73;102727.03;1734747;82;21719;-49
2021/03/01 09:07:05;;;;;;;38.83;30.70;;;;;;;8.44;59.98;102727.52;1742449;82;21136;-48
2021/03/01 09:09:48;;;;;;;34.10;25.92;;;;;;;8.47;59.94;102722.81;1727046;80;21144;-48
2021/03/01 09:12:19;;;;;;;27.58;21.90;;;;;;;8.51;59.63;102736.29;1686273;85;21166;-48
2021/03/01 09:14:47;;;;;;;20.68;13.72;;;;;;;8.47;59.33;102734.04;1689045;85;21215;-49
2021/03/01 09:17:15;;;;;;;19.73;15.10;;;;;;;8.44;59.29;102733.12;1657799;86;21180;-49
2021/03/01 09:19:44;;;;;;;10.40;8.10;;;;;;;8.40;59.25;102733.91;1689055;85;21762;-49
2021/03/01 09:22:13;;;;;;;45.48;24.55;;;;;;;8.40;59.38;102728.72;1688810;85;21747;-48
2021/03/01 09:24:41;;;;;;;46.30;26.10;;;;;;;8.39;59.39;102737.37;1657750;86;21172;-48
2021/03/01 09:27:10;;;;;;;31.20;17.57;;;;;;;8.39;59.66;102736.06;1687711;85;21367;-48
2021/03/01 09:29:38;;;;;;;16.50;11.57;;;;;;;8.40;59.61;102736.50;1687166;85;21322;-48
2021/03/01 09:32:07;;;;;;;13.18;9.60;;;;;;;8.45;59.53;102734.88;1686395;85;21318;-48
2021/03/01 09:34:36;;;;;;;29.92;21.40;;;;;;;8.50;59.31;102738.41;1689019;85;21172;-48
2021/03/01 09:37:08;;;;;;;18.87;15.68;;;;;;;8.53;59.37;102735.89;1654425;86;21192;-48
2021/03/01 09:39:38;;;;;;;10.03;9.03;;;;;;;8.58;59.09;102742.91;1688830;85;21154;-48
2021/03/01 09:42:07;;;;;;;10.38;8.13;;;;;;;8.57;59.03;102748.92;1688848;85;21318;-48
2021/03/01 09:44:37;;;;;;;16.20;13.38;;;;;;;8.57;58.97;102755.86;1688867;85;21177;-49
2021/03/01 09:47:08;;;;;;;9.75;8.75;;;;;;;8.58;58.76;102752.40;1688151;85;21648;-49
2021/03/01 09:49:41;;;;;;;;;;;;;;;8.55;58.73;102753.21;1691673;85;21133;-48
2021/03/01 09:52:09;;;;;;;62.53;46.98;;;;;;;8.54;58.94;102754.48;1686269;84;20166;-49
2021/03/01 09:54:39;;;;;;;79.00;57.75;;;;;;;8.56;58.89;102761.87;1686251;85;21137;-49
2021/03/01 09:57:09;;;;;;;52.35;37.38;;;;;;;8.55;58.83;102762.30;1686363;84;21172;-48
2021/03/01 09:59:43;;;;;;;42.45;32.75;;;;;;;8.58;58.76;102773.16;1686626;84;21175;-48
2021/03/01 10:02:23;;;;;;;22.10;16.67;;;;;;;8.65;58.54;102771.14;1652672;87;21179;-48
2021/03/01 10:05:09;;;;;;;27.40;18.92;;;;;;;8.66;58.39;102771.58;1686130;84;21361;-48
2021/03/01 10:07:39;;;;;;;16.30;12.70;;;;;;;8.66;58.51;102774.17;1682535;84;21193;-48
2021/03/01 10:10:14;;;;;;;23.15;16.75;;;;;;;8.65;58.50;102777.62;1684940;84;21169;-48
2021/03/01 10:12:46;;;;;;;13.60;10.95;;;;;;;8.63;58.55;102778.02;1645441;86;21255;-48
2021/03/01 10:15:16;;;;;;;20.77;14.93;;;;;;;8.64;58.61;102776.75;1638599;86;21266;-48
2021/03/01 10:17:46;;;;;;;17.45;12.58;;;;;;;8.63;58.61;102778.02;1647343;86;21212;-48
2021/03/01 10:20:15;;;;;;;11.22;9.15;;;;;;;8.63;58.67;102776.73;1647355;86;21734;-48
2021/03/01 10:23:06;;;;;;;22.07;15.85;;;;;;;8.65;58.64;102780.22;1651153;86;21361;-48
2021/03/01 10:25:42;;;;;;;73.25;47.30;;;;;;;8.72;58.85;102780.77;1750599;79;28855;-49
2021/03/01 10:28:27;;;;;;;46.13;29.02;;;;;;;8.76;58.71;102789.05;1731979;82;21167;-49
2021/03/01 10:31:08;;;;;;;26.05;16.95;;;;;;;8.86;58.79;102793.59;1740006;82;21148;-48
2021/03/01 10:33:59;;;;;;;37.38;27.65;;;;;;;8.93;58.73;102792.83;1727564;82;21160;-48
2021/03/01 10:36:47;;;;;;;26.12;21.27;;;;;;;9.00;58.50;102798.59;1747804;82;21588;-49
2021/03/01 10:39:36;;;;;;;23.50;17.62;;;;;;;9.03;58.34;102802.52;1734395;82;21304;-50
2021/03/01 10:42:13;;;;;;;18.12;13.45;;;;;;;9.08;58.08;102795.70;1737528;82;21286;-49
2021/03/01 10:44:56;;;;;;;32.95;22.27;;;;;;;9.10;57.73;102796.60;1737223;82;21577;-49
2021/03/01 10:47:30;;;;;;;15.32;12.20;;;;;;;9.05;57.51;102798.23;1737740;80;21155;-49
2021/03/01 10:50:07;;;;;;;20.10;15.13;;;;;;;8.95;57.43;102805.42;1677230;84;21184;-49
2021/03/01 10:52:42;;;;;;;29.70;19.70;;;;;;;8.87;57.61;102804.41;1773250;79;23050;-50
2021/03/01 10:55:12;;;;;;;16.85;12.58;;;;;;;8.77;57.83;102806.39;1737003;82;21164;-50
2021/03/01 10:57:40;;;;;;;17.25;11.68;;;;;;;8.75;57.96;102813.28;1732013;82;21818;-48
2021/03/01 11:00:11;;;;;;;23.10;15.10;;;;;;;8.74;58.12;102816.70;1736659;82;21159;-49
2021/03/01 11:02:39;;;;;;;9.88;7.90;;;;;;;8.77;58.08;102821.97;1741942;82;21148;-49
2021/03/01 11:05:09;;;;;;;12.20;9.35;;;;;;;8.77;58.22;102816.36;1734402;82;21145;-48
2021/03/01 11:07:37;;;;;;;9.83;8.03;;;;;;;8.80;58.13;102816.81;1740963;82;21160;-48
2021/03/01 11:10:07;;;;;;;10.03;8.18;;;;;;;8.80;57.91;102820.70;1737943;82;21636;-48
2021/03/01 11:12:37;;;;;;;7.08;6.37;;;;;;;8.80;57.81;102822.01;1738468;82;21164;-49
2021/03/01 11:15:07;;;;;;;10.82;7.60;;;;;;;8.77;57.62;102821.97;1737608;82;21129;-48
2021/03/01 11:17:35;;;;;;;10.72;7.87;;;;;;;8.72;57.71;102823.59;1743765;82;21168;-50
2021/03/01 11:20:06;;;;;;;11.95;8.95;;;;;;;8.73;57.85;102822.77;1708394;82;21113;-48
2021/03/01 11:22:34;;;;;;;17.30;13.28;;;;;;;8.74;57.71;102825.79;1741907;82;21608;-48
2021/03/01 11:25:05;;;;;;;18.85;13.30;;;;;;;8.75;57.63;102827.55;1732344;82;21313;-48
2021/03/01 11:27:33;;;;;;;20.45;13.62;;;;;;;8.75;57.62;102826.26;1744508;82;21652;-49
2021/03/01 11:30:03;;;;;;;11.50;8.93;;;;;;;8.74;57.32;102820.19;1740931;82;21169;-49
2021/03/01 11:32:31;;;;;;;18.35;11.53;;;;;;;8.74;57.07;102827.97;1734731;82;21120;-48
2021/03/01 11:35:00;;;;;;;22.77;15.05;;;;;;;8.71;56.90;102836.13;1741375;82;21189;-49
2021/03/01 11:37:29;;;;;;;37.08;23.27;;;;;;;8.68;56.97;102836.94;1737334;82;21311;-48
2021/03/01 11:39:57;;;;;;;16.27;11.08;;;;;;;8.69;57.00;102844.31;1738508;82;21109;-48
2021/03/01 11:42:26;;;;;;;16.80;13.18;;;;;;;8.67;57.11;102840.81;1737686;82;21323;-49
2021/03/01 11:44:54;;;;;;;10.58;7.78;;;;;;;8.69;56.94;102846.91;1740228;82;21342;-50
2021/03/01 11:47:23;;;;;;;9.95;8.18;;;;;;;8.67;56.62;102840.81;1741092;82;21587;-48
2021/03/01 11:49:52;;;;;;;6.05;5.45;;;;;;;8.66;56.62;102850.31;1734104;82;21152;-50
2021/03/01 11:52:20;;;;;;;6.33;5.60;;;;;;;8.63;56.64;102846.38;1734525;81;21283;-48
2021/03/01 11:54:50;;;;;;;6.87;4.95;;;;;;;8.63;56.80;102855.47;1725587;82;21153;-48